sensor_id;sensor_type;location;lat;lon;timestamp;P1;durP1;ratioP1;P2;durP2;ratioP2
54875;SDS011;40764;48.472;8.166;2023-02-15T00:04:57;334.23;;;37.80;;
54875;SDS011;40764;48.472;8.166;2023-02-15T00:11:08;296.90;;;38.72;;
54875;SDS011;40764;48.472;8.166;2023-02-15T00:17:10;188.68;;;31.63;;
54875;SDS011;40764;48.472;8.166;2023-02-15T00:23:10;189.20;;;31.77;;
54875;SDS011;40764;48.472;8.166;2023-02-15T00:29:11;189.02;;;31.73;;
54875;SDS011;40764;48.472;8.166;2023-02-15T00:35:13;144.35;;;28.00;;
54875;SDS011;40764;48.472;8.166;2023-02-15T00:41:13;109.93;;;27.20;;
54875;SDS011;40764;48.472;8.166;2023-02-15T00:47:13;99.57;;;25.23;;
54875;SDS011;40764;48.472;8.166;2023-02-15T00:53:14;140.00;;;28.20;;
54875;SDS011;40764;48.472;8.166;2023-02-15T00:59:14;166.50;;;28.47;;
54875;SDS011;40764;48.472;8.166;2023-02-15T01:05:14;253.15;;;32.10;;
54875;SDS011;40764;48.472;8.166;2023-02-15T01:11:16;90.67;;;23.00;;
54875;SDS011;40764;48.472;8.166;2023-02-15T01:17:21;94.55;;;24.45;;
54875;SDS011;40764;48.472;8.166;2023-02-15T01:23:22;87.07;;;24.45;;
54875;SDS011;40764;48.472;8.166;2023-02-15T01:29:22;81.10;;;25.38;;
54875;SDS011;40764;48.472;8.166;2023-02-15T01:35:22;62.58;;;24.23;;
54875;SDS011;40764;48.472;8.166;2023-02-15T01:41:23;100.40;;;26.90;;
54875;SDS011;40764;48.472;8.166;2023-02-15T01:54:03;47.17;;;22.35;;
54875;SDS011;40764;48.472;8.166;2023-02-15T02:00:10;49.10;;;22.27;;
54875;SDS011;40764;48.472;8.166;2023-02-15T02:06:11;39.33;;;19.55;;
54875;SDS011;40764;48.472;8.166;2023-02-15T02:12:11;37.57;;;19.23;;
54875;SDS011;40764;48.472;8.166;2023-02-15T02:18:35;40.53;;;19.38;;
54875;SDS011;40764;48.472;8.166;2023-02-15T02:37:20;32.97;;;16.27;;
54875;SDS011;40764;48.472;8.166;2023-02-15T02:49:47;35.25;;;17.02;;
54875;SDS011;40764;48.472;8.166;2023-02-15T02:55:53;30.15;;;14.65;;
54875;SDS011;40764;48.472;8.166;2023-02-15T03:01:59;34.75;;;15.27;;
54875;SDS011;40764;48.472;8.166;2023-02-15T03:08:14;41.53;;;17.73;;
54875;SDS011;40764;48.472;8.166;2023-02-15T03:14:21;35.60;;;16.13;;
54875;SDS011;40764;48.472;8.166;2023-02-15T03:20:29;33.15;;;15.07;;
54875;SDS011;40764;48.472;8.166;2023-02-15T03:26:34;30.27;;;15.77;;
54875;SDS011;40764;48.472;8.166;2023-02-15T03:32:36;31.38;;;14.75;;
54875;SDS011;40764;48.472;8.166;2023-02-15T03:38:44;34.45;;;15.70;;
54875;SDS011;40764;48.472;8.166;2023-02-15T03:44:57;31.48;;;15.32;;
54875;SDS011;40764;48.472;8.166;2023-02-15T03:51:06;33.07;;;14.70;;
54875;SDS011;40764;48.472;8.166;2023-02-15T03:57:28;26.30;;;13.02;;
54875;SDS011;40764;48.472;8.166;2023-02-15T04:04:09;24.08;;;12.40;;
54875;SDS011;40764;48.472;8.166;2023-02-15T04:10:12;35.65;;;15.32;;
54875;SDS011;40764;48.472;8.166;2023-02-15T04:16:31;26.27;;;14.05;;
54875;SDS011;40764;48.472;8.166;2023-02-15T04:22:31;26.13;;;14.27;;
54875;SDS011;40764;48.472;8.166;2023-02-15T04:28:50;34.47;;;14.50;;
54875;SDS011;40764;48.472;8.166;2023-02-15T04:34:50;28.83;;;13.68;;
54875;SDS011;40764;48.472;8.166;2023-02-15T04:40:51;25.27;;;13.45;;
54875;SDS011;40764;48.472;8.166;2023-02-15T04:46:52;23.65;;;12.55;;
54875;SDS011;40764;48.472;8.166;2023-02-15T04:52:52;24.57;;;12.77;;
54875;SDS011;40764;48.472;8.166;2023-02-15T04:58:57;25.13;;;11.67;;
54875;SDS011;40764;48.472;8.166;2023-02-15T05:05:09;33.97;;;14.07;;
54875;SDS011;40764;48.472;8.166;2023-02-15T05:11:12;28.88;;;14.27;;
54875;SDS011;40764;48.472;8.166;2023-02-15T05:17:13;25.25;;;12.27;;
54875;SDS011;40764;48.472;8.166;2023-02-15T05:23:13;24.00;;;12.30;;
54875;SDS011;40764;48.472;8.166;2023-02-15T05:29:14;28.67;;;13.07;;
54875;SDS011;40764;48.472;8.166;2023-02-15T05:35:14;26.70;;;13.52;;
54875;SDS011;40764;48.472;8.166;2023-02-15T05:41:15;32.00;;;14.30;;
54875;SDS011;40764;48.472;8.166;2023-02-15T05:47:16;30.60;;;15.27;;
54875;SDS011;40764;48.472;8.166;2023-02-15T05:53:16;32.78;;;13.88;;
54875;SDS011;40764;48.472;8.166;2023-02-15T05:59:17;34.78;;;15.68;;
54875;SDS011;40764;48.472;8.166;2023-02-15T06:05:17;40.50;;;15.10;;
54875;SDS011;40764;48.472;8.166;2023-02-15T06:11:17;45.20;;;16.83;;
54875;SDS011;40764;48.472;8.166;2023-02-15T06:17:18;38.08;;;13.98;;
54875;SDS011;40764;48.472;8.166;2023-02-15T06:23:18;41.15;;;14.90;;
54875;SDS011;40764;48.472;8.166;2023-02-15T06:29:18;22.73;;;11.83;;
54875;SDS011;40764;48.472;8.166;2023-02-15T06:35:19;47.70;;;16.80;;
54875;SDS011;40764;48.472;8.166;2023-02-15T06:41:19;23.37;;;11.67;;
54875;SDS011;40764;48.472;8.166;2023-02-15T06:47:22;40.93;;;16.10;;
54875;SDS011;40764;48.472;8.166;2023-02-15T06:53:23;38.00;;;14.15;;
54875;SDS011;40764;48.472;8.166;2023-02-15T06:59:23;37.20;;;15.13;;
54875;SDS011;40764;48.472;8.166;2023-02-15T07:05:24;38.15;;;16.75;;
54875;SDS011;40764;48.472;8.166;2023-02-15T07:11:30;31.05;;;14.63;;
54875;SDS011;40764;48.472;8.166;2023-02-15T07:17:49;34.40;;;13.70;;
54875;SDS011;40764;48.472;8.166;2023-02-15T07:23:52;32.20;;;13.57;;
54875;SDS011;40764;48.472;8.166;2023-02-15T07:29:52;24.77;;;10.77;;
54875;SDS011;40764;48.472;8.166;2023-02-15T07:35:54;23.50;;;10.80;;
54875;SDS011;40764;48.472;8.166;2023-02-15T07:42:01;31.80;;;12.65;;
54875;SDS011;40764;48.472;8.166;2023-02-15T07:48:02;55.30;;;26.17;;
54875;SDS011;40764;48.472;8.166;2023-02-15T07:54:05;25.08;;;12.15;;
54875;SDS011;40764;48.472;8.166;2023-02-15T08:00:08;22.20;;;10.75;;
54875;SDS011;40764;48.472;8.166;2023-02-15T08:06:16;26.48;;;12.18;;
54875;SDS011;40764;48.472;8.166;2023-02-15T08:12:22;18.67;;;9.50;;
54875;SDS011;40764;48.472;8.166;2023-02-15T08:18:29;13.18;;;6.60;;
54875;SDS011;40764;48.472;8.166;2023-02-15T08:30:46;9.10;;;4.18;;
54875;SDS011;40764;48.472;8.166;2023-02-15T08:36:46;9.00;;;5.40;;
54875;SDS011;40764;48.472;8.166;2023-02-15T08:42:47;10.63;;;6.43;;
54875;SDS011;40764;48.472;8.166;2023-02-15T08:48:47;14.02;;;4.85;;
54875;SDS011;40764;48.472;8.166;2023-02-15T08:54:48;10.40;;;5.53;;
54875;SDS011;40764;48.472;8.166;2023-02-15T09:00:48;8.60;;;4.82;;
54875;SDS011;40764;48.472;8.166;2023-02-15T09:06:49;13.07;;;7.15;;
54875;SDS011;40764;48.472;8.166;2023-02-15T09:12:50;24.27;;;11.50;;
54875;SDS011;40764;48.472;8.166;2023-02-15T09:18:51;13.13;;;7.00;;
54875;SDS011;40764;48.472;8.166;2023-02-15T09:24:51;19.37;;;10.00;;
54875;SDS011;40764;48.472;8.166;2023-02-15T09:30:52;15.07;;;5.88;;
54875;SDS011;40764;48.472;8.166;2023-02-15T09:36:53;58.10;;;30.57;;
54875;SDS011;40764;48.472;8.166;2023-02-15T09:55:51;14.23;;;6.75;;
54875;SDS011;40764;48.472;8.166;2023-02-15T10:08:49;24.73;;;11.48;;
54875;SDS011;40764;48.472;8.166;2023-02-15T10:27:25;70.85;;;29.80;;
54875;SDS011;40764;48.472;8.166;2023-02-15T10:46:00;94.18;;;38.80;;
54875;SDS011;40764;48.472;8.166;2023-02-15T10:52:16;98.85;;;40.03;;
54875;SDS011;40764;48.472;8.166;2023-02-15T11:04:48;96.10;;;36.35;;
54875;SDS011;40764;48.472;8.166;2023-02-15T11:10:54;75.55;;;32.53;;
54875;SDS011;40764;48.472;8.166;2023-02-15T11:17:08;66.38;;;30.42;;
54875;SDS011;40764;48.472;8.166;2023-02-15T11:23:13;66.43;;;29.17;;
54875;SDS011;40764;48.472;8.166;2023-02-15T11:29:27;70.00;;;31.95;;
54875;SDS011;40764;48.472;8.166;2023-02-15T11:35:40;63.97;;;28.05;;
54875;SDS011;40764;48.472;8.166;2023-02-15T11:41:52;62.88;;;28.73;;
54875;SDS011;40764;48.472;8.166;2023-02-15T11:47:55;64.43;;;29.42;;
54875;SDS011;40764;48.472;8.166;2023-02-15T11:53:57;63.67;;;27.35;;
54875;SDS011;40764;48.472;8.166;2023-02-15T12:06:34;61.13;;;28.27;;
54875;SDS011;40764;48.472;8.166;2023-02-15T12:12:38;74.22;;;33.00;;
54875;SDS011;40764;48.472;8.166;2023-02-15T12:18:54;84.30;;;38.33;;
54875;SDS011;40764;48.472;8.166;2023-02-15T12:24:58;101.53;;;43.20;;
54875;SDS011;40764;48.472;8.166;2023-02-15T12:31:01;97.25;;;43.63;;
54875;SDS011;40764;48.472;8.166;2023-02-15T12:37:07;117.43;;;49.88;;
54875;SDS011;40764;48.472;8.166;2023-02-15T12:43:25;96.68;;;42.58;;
54875;SDS011;40764;48.472;8.166;2023-02-15T12:49:36;119.80;;;46.55;;
54875;SDS011;40764;48.472;8.166;2023-02-15T12:55:37;128.07;;;55.13;;
54875;SDS011;40764;48.472;8.166;2023-02-15T13:01:38;104.28;;;43.17;;
54875;SDS011;40764;48.472;8.166;2023-02-15T13:07:38;115.97;;;46.67;;
54875;SDS011;40764;48.472;8.166;2023-02-15T13:14:01;117.25;;;45.88;;
54875;SDS011;40764;48.472;8.166;2023-02-15T13:20:05;115.82;;;48.72;;
54875;SDS011;40764;48.472;8.166;2023-02-15T13:26:20;112.03;;;45.97;;
54875;SDS011;40764;48.472;8.166;2023-02-15T13:32:26;131.60;;;49.80;;
54875;SDS011;40764;48.472;8.166;2023-02-15T13:51:40;104.05;;;45.15;;
54875;SDS011;40764;48.472;8.166;2023-02-15T14:11:17;106.57;;;47.17;;
54875;SDS011;40764;48.472;8.166;2023-02-15T14:17:25;108.82;;;46.92;;
54875;SDS011;40764;48.472;8.166;2023-02-15T14:30:22;101.70;;;45.17;;
54875;SDS011;40764;48.472;8.166;2023-02-15T14:50:27;107.05;;;42.38;;
54875;SDS011;40764;48.472;8.166;2023-02-15T14:56:30;110.65;;;46.42;;
54875;SDS011;40764;48.472;8.166;2023-02-15T15:08:46;118.72;;;47.75;;
54875;SDS011;40764;48.472;8.166;2023-02-15T15:14:47;107.00;;;45.83;;
54875;SDS011;40764;48.472;8.166;2023-02-15T15:20:49;116.07;;;46.30;;
54875;SDS011;40764;48.472;8.166;2023-02-15T15:58:35;110.68;;;47.00;;
54875;SDS011;40764;48.472;8.166;2023-02-15T16:04:35;120.00;;;50.63;;
54875;SDS011;40764;48.472;8.166;2023-02-15T16:10:36;120.70;;;50.20;;
54875;SDS011;40764;48.472;8.166;2023-02-15T16:22:38;125.82;;;51.83;;
54875;SDS011;40764;48.472;8.166;2023-02-15T16:28:38;142.33;;;55.13;;
54875;SDS011;40764;48.472;8.166;2023-02-15T16:34:39;188.13;;;67.77;;
54875;SDS011;40764;48.472;8.166;2023-02-15T16:40:54;185.05;;;68.30;;
54875;SDS011;40764;48.472;8.166;2023-02-15T16:46:57;169.55;;;65.03;;
54875;SDS011;40764;48.472;8.166;2023-02-15T16:52:58;137.53;;;56.13;;
54875;SDS011;40764;48.472;8.166;2023-02-15T16:59:02;122.97;;;49.00;;
54875;SDS011;40764;48.472;8.166;2023-02-15T17:17:32;143.05;;;52.40;;
54875;SDS011;40764;48.472;8.166;2023-02-15T17:23:33;111.30;;;45.73;;
54875;SDS011;40764;48.472;8.166;2023-02-15T17:29:40;120.28;;;48.22;;
54875;SDS011;40764;48.472;8.166;2023-02-15T17:36:01;137.63;;;50.83;;
54875;SDS011;40764;48.472;8.166;2023-02-15T17:42:13;140.73;;;55.53;;
54875;SDS011;40764;48.472;8.166;2023-02-15T17:48:21;128.00;;;50.92;;
54875;SDS011;40764;48.472;8.166;2023-02-15T17:54:24;116.25;;;46.88;;
54875;SDS011;40764;48.472;8.166;2023-02-15T18:00:50;115.22;;;45.40;;
54875;SDS011;40764;48.472;8.166;2023-02-15T18:07:12;122.97;;;48.50;;
54875;SDS011;40764;48.472;8.166;2023-02-15T18:13:32;108.25;;;47.38;;
54875;SDS011;40764;48.472;8.166;2023-02-15T18:19:32;101.43;;;41.85;;
54875;SDS011;40764;48.472;8.166;2023-02-15T18:25:34;96.85;;;41.33;;
54875;SDS011;40764;48.472;8.166;2023-02-15T18:31:35;102.00;;;44.58;;
54875;SDS011;40764;48.472;8.166;2023-02-15T18:37:35;131.53;;;53.97;;
54875;SDS011;40764;48.472;8.166;2023-02-15T18:43:36;109.47;;;47.73;;
54875;SDS011;40764;48.472;8.166;2023-02-15T18:49:36;81.88;;;34.75;;
54875;SDS011;40764;48.472;8.166;2023-02-15T18:55:37;104.47;;;36.45;;
54875;SDS011;40764;48.472;8.166;2023-02-15T19:01:38;103.93;;;36.45;;
54875;SDS011;40764;48.472;8.166;2023-02-15T19:07:38;98.60;;;33.73;;
54875;SDS011;40764;48.472;8.166;2023-02-15T19:13:39;240.37;;;61.87;;
54875;SDS011;40764;48.472;8.166;2023-02-15T19:19:39;113.87;;;39.63;;
54875;SDS011;40764;48.472;8.166;2023-02-15T19:25:39;106.15;;;40.97;;
54875;SDS011;40764;48.472;8.166;2023-02-15T19:31:40;99.67;;;39.90;;
54875;SDS011;40764;48.472;8.166;2023-02-15T19:37:45;121.73;;;43.80;;
54875;SDS011;40764;48.472;8.166;2023-02-15T19:43:52;176.07;;;55.80;;
54875;SDS011;40764;48.472;8.166;2023-02-15T19:50:00;192.38;;;60.42;;
54875;SDS011;40764;48.472;8.166;2023-02-15T19:56:02;129.43;;;42.92;;
54875;SDS011;40764;48.472;8.166;2023-02-15T20:02:03;65.30;;;27.27;;
54875;SDS011;40764;48.472;8.166;2023-02-15T20:08:05;64.97;;;26.07;;
54875;SDS011;40764;48.472;8.166;2023-02-15T20:14:11;48.60;;;21.77;;
54875;SDS011;40764;48.472;8.166;2023-02-15T20:20:13;81.38;;;32.13;;
54875;SDS011;40764;48.472;8.166;2023-02-15T20:26:15;55.55;;;23.80;;
54875;SDS011;40764;48.472;8.166;2023-02-15T20:32:17;60.70;;;25.42;;
54875;SDS011;40764;48.472;8.166;2023-02-15T20:38:21;63.25;;;26.25;;
54875;SDS011;40764;48.472;8.166;2023-02-15T20:50:31;48.92;;;21.35;;
54875;SDS011;40764;48.472;8.166;2023-02-15T20:56:32;59.80;;;24.80;;
54875;SDS011;40764;48.472;8.166;2023-02-15T21:02:32;49.08;;;17.95;;
54875;SDS011;40764;48.472;8.166;2023-02-15T21:08:32;58.28;;;23.85;;
54875;SDS011;40764;48.472;8.166;2023-02-15T21:14:34;79.63;;;29.55;;
54875;SDS011;40764;48.472;8.166;2023-02-15T21:20:35;48.73;;;21.20;;
54875;SDS011;40764;48.472;8.166;2023-02-15T21:26:36;39.47;;;17.97;;
54875;SDS011;40764;48.472;8.166;2023-02-15T21:32:40;36.17;;;15.95;;
54875;SDS011;40764;48.472;8.166;2023-02-15T21:38:41;28.47;;;14.07;;
54875;SDS011;40764;48.472;8.166;2023-02-15T21:44:42;64.73;;;27.27;;
54875;SDS011;40764;48.472;8.166;2023-02-15T21:51:01;69.30;;;22.33;;
54875;SDS011;40764;48.472;8.166;2023-02-15T21:57:20;45.38;;;21.00;;
54875;SDS011;40764;48.472;8.166;2023-02-15T22:03:21;30.35;;;15.25;;
54875;SDS011;40764;48.472;8.166;2023-02-15T22:09:23;33.13;;;13.68;;
54875;SDS011;40764;48.472;8.166;2023-02-15T22:15:26;23.83;;;12.00;;
54875;SDS011;40764;48.472;8.166;2023-02-15T22:21:35;21.65;;;10.52;;
54875;SDS011;40764;48.472;8.166;2023-02-15T22:27:37;24.98;;;11.60;;
54875;SDS011;40764;48.472;8.166;2023-02-15T22:33:39;32.22;;;13.82;;
54875;SDS011;40764;48.472;8.166;2023-02-15T22:39:39;29.60;;;13.00;;
54875;SDS011;40764;48.472;8.166;2023-02-15T22:45:40;25.95;;;12.30;;
54875;SDS011;40764;48.472;8.166;2023-02-15T22:51:40;23.70;;;11.43;;
54875;SDS011;40764;48.472;8.166;2023-02-15T22:57:41;18.30;;;9.00;;
54875;SDS011;40764;48.472;8.166;2023-02-15T23:03:43;18.50;;;8.45;;
54875;SDS011;40764;48.472;8.166;2023-02-15T23:09:44;20.75;;;10.27;;
54875;SDS011;40764;48.472;8.166;2023-02-15T23:15:45;18.83;;;10.32;;
54875;SDS011;40764;48.472;8.166;2023-02-15T23:21:50;23.27;;;10.35;;
54875;SDS011;40764;48.472;8.166;2023-02-15T23:27:51;23.27;;;9.23;;
54875;SDS011;40764;48.472;8.166;2023-02-15T23:33:57;16.73;;;8.32;;
54875;SDS011;40764;48.472;8.166;2023-02-15T23:40:00;15.27;;;7.78;;
54875;SDS011;40764;48.472;8.166;2023-02-15T23:46:21;13.80;;;7.22;;
54875;SDS011;40764;48.472;8.166;2023-02-15T23:52:23;14.95;;;7.43;;
54875;SDS011;40764;48.472;8.166;2023-02-15T23:58:26;18.92;;;8.15;;
